sensor_id;sensor_type;location;lat;lon;timestamp;P1;durP1;ratioP1;P2;durP2;ratioP2
48268;SDS011;34088;52.232;5.196;2023-07-09T00:01:17;11.65;;;9.55;;
48268;SDS011;34088;52.232;5.196;2023-07-09T00:03:44;11.98;;;9.43;;
48268;SDS011;34088;52.232;5.196;2023-07-09T00:06:19;11.65;;;9.13;;
48268;SDS011;34088;52.232;5.196;2023-07-09T00:08:45;15.25;;;9.98;;
48268;SDS011;34088;52.232;5.196;2023-07-09T00:11:13;14.70;;;9.68;;
48268;SDS011;34088;52.232;5.196;2023-07-09T00:13:39;14.95;;;9.38;;
48268;SDS011;34088;52.232;5.196;2023-07-09T00:16:10;12.43;;;9.85;;
48268;SDS011;34088;52.232;5.196;2023-07-09T00:32:42;16.02;;;10.13;;
48268;SDS011;34088;52.232;5.196;2023-07-09T00:35:11;12.98;;;9.88;;
48268;SDS011;34088;52.232;5.196;2023-07-09T00:37:40;12.45;;;9.85;;
48268;SDS011;34088;52.232;5.196;2023-07-09T00:40:09;11.07;;;8.93;;
48268;SDS011;34088;52.232;5.196;2023-07-09T00:42:39;13.70;;;9.70;;
48268;SDS011;34088;52.232;5.196;2023-07-09T00:45:15;14.05;;;10.02;;
48268;SDS011;34088;52.232;5.196;2023-07-09T00:50:35;11.32;;;9.98;;
48268;SDS011;34088;52.232;5.196;2023-07-09T00:55:55;12.90;;;9.27;;
48268;SDS011;34088;52.232;5.196;2023-07-09T00:58:34;12.30;;;8.90;;
48268;SDS011;34088;52.232;5.196;2023-07-09T01:01:03;11.98;;;8.88;;
48268;SDS011;34088;52.232;5.196;2023-07-09T01:03:36;12.35;;;9.23;;
48268;SDS011;34088;52.232;5.196;2023-07-09T01:06:07;13.20;;;8.75;;
48268;SDS011;34088;52.232;5.196;2023-07-09T01:08:34;12.80;;;8.63;;
48268;SDS011;34088;52.232;5.196;2023-07-09T01:11:01;12.05;;;9.27;;
48268;SDS011;34088;52.232;5.196;2023-07-09T01:13:27;13.68;;;9.18;;
48268;SDS011;34088;52.232;5.196;2023-07-09T01:15:57;12.07;;;9.07;;
48268;SDS011;34088;52.232;5.196;2023-07-09T01:18:23;13.55;;;10.00;;
48268;SDS011;34088;52.232;5.196;2023-07-09T01:20:49;11.95;;;9.15;;
48268;SDS011;34088;52.232;5.196;2023-07-09T01:23:17;13.75;;;9.82;;
48268;SDS011;34088;52.232;5.196;2023-07-09T01:25:44;13.52;;;9.23;;
48268;SDS011;34088;52.232;5.196;2023-07-09T01:28:12;11.05;;;9.35;;
48268;SDS011;34088;52.232;5.196;2023-07-09T01:30:39;11.85;;;9.10;;
48268;SDS011;34088;52.232;5.196;2023-07-09T01:33:05;15.30;;;9.43;;
48268;SDS011;34088;52.232;5.196;2023-07-09T01:35:33;12.27;;;9.07;;
48268;SDS011;34088;52.232;5.196;2023-07-09T01:38:01;15.20;;;9.45;;
48268;SDS011;34088;52.232;5.196;2023-07-09T01:40:27;13.50;;;8.98;;
48268;SDS011;34088;52.232;5.196;2023-07-09T01:42:54;12.57;;;9.10;;
48268;SDS011;34088;52.232;5.196;2023-07-09T01:45:23;13.25;;;9.35;;
48268;SDS011;34088;52.232;5.196;2023-07-09T01:47:48;12.38;;;8.82;;
48268;SDS011;34088;52.232;5.196;2023-07-09T01:50:14;14.15;;;9.43;;
48268;SDS011;34088;52.232;5.196;2023-07-09T01:52:41;12.65;;;9.60;;
48268;SDS011;34088;52.232;5.196;2023-07-09T01:55:08;12.77;;;9.43;;
48268;SDS011;34088;52.232;5.196;2023-07-09T01:57:35;12.10;;;9.13;;
48268;SDS011;34088;52.232;5.196;2023-07-09T02:00:02;18.00;;;9.75;;
48268;SDS011;34088;52.232;5.196;2023-07-09T02:02:30;15.38;;;10.02;;
48268;SDS011;34088;52.232;5.196;2023-07-09T02:04:57;15.07;;;9.27;;
48268;SDS011;34088;52.232;5.196;2023-07-09T02:07:23;12.13;;;8.93;;
48268;SDS011;34088;52.232;5.196;2023-07-09T02:09:49;11.93;;;9.35;;
48268;SDS011;34088;52.232;5.196;2023-07-09T02:12:15;14.63;;;9.07;;
48268;SDS011;34088;52.232;5.196;2023-07-09T02:14:41;14.13;;;9.48;;
48268;SDS011;34088;52.232;5.196;2023-07-09T02:17:08;12.50;;;9.55;;
48268;SDS011;34088;52.232;5.196;2023-07-09T02:19:34;12.40;;;9.32;;
48268;SDS011;34088;52.232;5.196;2023-07-09T02:22:00;12.52;;;9.00;;
48268;SDS011;34088;52.232;5.196;2023-07-09T02:24:25;12.57;;;9.27;;
48268;SDS011;34088;52.232;5.196;2023-07-09T02:26:55;13.88;;;9.43;;
48268;SDS011;34088;52.232;5.196;2023-07-09T02:29:25;12.23;;;9.43;;
48268;SDS011;34088;52.232;5.196;2023-07-09T02:31:52;11.82;;;9.45;;
48268;SDS011;34088;52.232;5.196;2023-07-09T02:34:21;13.88;;;9.38;;
48268;SDS011;34088;52.232;5.196;2023-07-09T02:36:50;12.93;;;9.30;;
48268;SDS011;34088;52.232;5.196;2023-07-09T02:39:16;12.68;;;9.52;;
48268;SDS011;34088;52.232;5.196;2023-07-09T02:41:42;11.63;;;9.20;;
48268;SDS011;34088;52.232;5.196;2023-07-09T02:44:07;12.25;;;8.68;;
48268;SDS011;34088;52.232;5.196;2023-07-09T02:46:33;12.10;;;8.77;;
48268;SDS011;34088;52.232;5.196;2023-07-09T02:48:59;12.05;;;9.57;;
48268;SDS011;34088;52.232;5.196;2023-07-09T02:51:25;14.90;;;9.27;;
48268;SDS011;34088;52.232;5.196;2023-07-09T02:53:52;13.05;;;9.13;;
48268;SDS011;34088;52.232;5.196;2023-07-09T02:56:20;11.90;;;9.13;;
48268;SDS011;34088;52.232;5.196;2023-07-09T02:58:46;12.63;;;8.98;;
48268;SDS011;34088;52.232;5.196;2023-07-09T03:01:11;13.20;;;9.90;;
48268;SDS011;34088;52.232;5.196;2023-07-09T03:03:37;13.85;;;10.23;;
48268;SDS011;34088;52.232;5.196;2023-07-09T03:06:03;14.98;;;9.70;;
48268;SDS011;34088;52.232;5.196;2023-07-09T03:08:28;13.00;;;9.43;;
48268;SDS011;34088;52.232;5.196;2023-07-09T03:10:53;13.65;;;9.68;;
48268;SDS011;34088;52.232;5.196;2023-07-09T03:13:19;12.60;;;9.70;;
48268;SDS011;34088;52.232;5.196;2023-07-09T03:15:53;13.25;;;9.50;;
48268;SDS011;34088;52.232;5.196;2023-07-09T03:18:19;13.20;;;9.50;;
48268;SDS011;34088;52.232;5.196;2023-07-09T03:20:44;12.77;;;10.07;;
48268;SDS011;34088;52.232;5.196;2023-07-09T03:23:10;14.35;;;10.38;;
48268;SDS011;34088;52.232;5.196;2023-07-09T03:25:40;11.98;;;9.70;;
48268;SDS011;34088;52.232;5.196;2023-07-09T03:28:05;15.40;;;10.50;;
48268;SDS011;34088;52.232;5.196;2023-07-09T03:30:31;15.35;;;10.02;;
48268;SDS011;34088;52.232;5.196;2023-07-09T03:32:56;12.98;;;10.15;;
48268;SDS011;34088;52.232;5.196;2023-07-09T03:35:21;15.52;;;10.68;;
48268;SDS011;34088;52.232;5.196;2023-07-09T03:37:47;12.82;;;10.13;;
48268;SDS011;34088;52.232;5.196;2023-07-09T03:40:13;12.75;;;9.32;;
48268;SDS011;34088;52.232;5.196;2023-07-09T03:42:46;14.55;;;10.35;;
48268;SDS011;34088;52.232;5.196;2023-07-09T03:45:11;15.52;;;10.40;;
48268;SDS011;34088;52.232;5.196;2023-07-09T03:47:36;14.68;;;9.80;;
48268;SDS011;34088;52.232;5.196;2023-07-09T03:50:01;13.75;;;10.43;;
48268;SDS011;34088;52.232;5.196;2023-07-09T03:52:27;13.82;;;10.70;;
48268;SDS011;34088;52.232;5.196;2023-07-09T03:54:53;15.18;;;10.60;;
48268;SDS011;34088;52.232;5.196;2023-07-09T03:57:18;13.57;;;9.98;;
48268;SDS011;34088;52.232;5.196;2023-07-09T03:59:43;12.32;;;9.95;;
48268;SDS011;34088;52.232;5.196;2023-07-09T04:02:08;13.13;;;10.13;;
48268;SDS011;34088;52.232;5.196;2023-07-09T04:04:34;14.05;;;10.07;;
48268;SDS011;34088;52.232;5.196;2023-07-09T04:06:59;14.18;;;10.38;;
48268;SDS011;34088;52.232;5.196;2023-07-09T04:09:24;14.65;;;10.27;;
48268;SDS011;34088;52.232;5.196;2023-07-09T04:11:50;12.82;;;10.10;;
48268;SDS011;34088;52.232;5.196;2023-07-09T04:14:15;14.30;;;10.80;;
48268;SDS011;34088;52.232;5.196;2023-07-09T04:16:40;17.08;;;11.07;;
48268;SDS011;34088;52.232;5.196;2023-07-09T04:19:05;16.25;;;10.93;;
48268;SDS011;34088;52.232;5.196;2023-07-09T04:21:31;12.85;;;9.90;;
48268;SDS011;34088;52.232;5.196;2023-07-09T04:23:56;14.75;;;10.57;;
48268;SDS011;34088;52.232;5.196;2023-07-09T04:26:21;13.75;;;10.05;;
48268;SDS011;34088;52.232;5.196;2023-07-09T04:28:48;13.82;;;10.60;;
48268;SDS011;34088;52.232;5.196;2023-07-09T04:31:13;13.13;;;10.90;;
48268;SDS011;34088;52.232;5.196;2023-07-09T04:33:39;13.30;;;9.90;;
48268;SDS011;34088;52.232;5.196;2023-07-09T04:36:05;13.55;;;10.60;;
48268;SDS011;34088;52.232;5.196;2023-07-09T04:38:30;13.10;;;10.27;;
48268;SDS011;34088;52.232;5.196;2023-07-09T04:40:55;15.35;;;11.10;;
48268;SDS011;34088;52.232;5.196;2023-07-09T04:43:21;14.55;;;10.55;;
48268;SDS011;34088;52.232;5.196;2023-07-09T04:45:46;13.90;;;10.52;;
48268;SDS011;34088;52.232;5.196;2023-07-09T04:48:12;12.98;;;10.32;;
48268;SDS011;34088;52.232;5.196;2023-07-09T04:50:37;13.95;;;10.60;;
48268;SDS011;34088;52.232;5.196;2023-07-09T04:53:05;12.98;;;10.55;;
48268;SDS011;34088;52.232;5.196;2023-07-09T04:55:30;12.52;;;10.20;;
48268;SDS011;34088;52.232;5.196;2023-07-09T04:57:56;20.60;;;10.18;;
48268;SDS011;34088;52.232;5.196;2023-07-09T05:00:22;14.70;;;10.40;;
48268;SDS011;34088;52.232;5.196;2023-07-09T05:02:47;15.07;;;10.52;;
48268;SDS011;34088;52.232;5.196;2023-07-09T05:05:12;13.82;;;10.48;;
48268;SDS011;34088;52.232;5.196;2023-07-09T05:07:38;14.50;;;10.40;;
48268;SDS011;34088;52.232;5.196;2023-07-09T05:10:04;12.43;;;9.93;;
48268;SDS011;34088;52.232;5.196;2023-07-09T05:12:30;14.05;;;11.10;;
48268;SDS011;34088;52.232;5.196;2023-07-09T05:14:56;15.95;;;10.88;;
48268;SDS011;34088;52.232;5.196;2023-07-09T05:17:21;14.43;;;10.10;;
48268;SDS011;34088;52.232;5.196;2023-07-09T05:19:48;14.40;;;10.25;;
48268;SDS011;34088;52.232;5.196;2023-07-09T05:22:14;13.93;;;10.60;;
48268;SDS011;34088;52.232;5.196;2023-07-09T05:24:39;13.32;;;10.75;;
48268;SDS011;34088;52.232;5.196;2023-07-09T05:27:04;14.60;;;10.60;;
48268;SDS011;34088;52.232;5.196;2023-07-09T05:29:30;14.65;;;10.45;;
48268;SDS011;34088;52.232;5.196;2023-07-09T05:31:55;13.20;;;9.95;;
48268;SDS011;34088;52.232;5.196;2023-07-09T05:34:20;14.00;;;10.77;;
48268;SDS011;34088;52.232;5.196;2023-07-09T05:36:46;14.23;;;10.70;;
48268;SDS011;34088;52.232;5.196;2023-07-09T05:39:12;14.93;;;11.70;;
48268;SDS011;34088;52.232;5.196;2023-07-09T05:41:37;15.90;;;11.35;;
48268;SDS011;34088;52.232;5.196;2023-07-09T05:44:03;14.25;;;12.07;;
48268;SDS011;34088;52.232;5.196;2023-07-09T05:46:28;16.35;;;11.88;;
48268;SDS011;34088;52.232;5.196;2023-07-09T05:48:53;18.85;;;11.88;;
48268;SDS011;34088;52.232;5.196;2023-07-09T05:51:19;17.42;;;12.13;;
48268;SDS011;34088;52.232;5.196;2023-07-09T05:53:46;15.13;;;11.50;;
48268;SDS011;34088;52.232;5.196;2023-07-09T05:56:11;13.57;;;10.43;;
48268;SDS011;34088;52.232;5.196;2023-07-09T05:58:37;14.48;;;11.95;;
48268;SDS011;34088;52.232;5.196;2023-07-09T06:01:02;17.45;;;12.07;;
48268;SDS011;34088;52.232;5.196;2023-07-09T06:03:28;17.48;;;11.75;;
48268;SDS011;34088;52.232;5.196;2023-07-09T06:05:55;17.38;;;12.68;;
48268;SDS011;34088;52.232;5.196;2023-07-09T06:08:22;15.23;;;12.32;;
48268;SDS011;34088;52.232;5.196;2023-07-09T06:10:58;14.85;;;11.38;;
48268;SDS011;34088;52.232;5.196;2023-07-09T06:13:25;16.23;;;11.73;;
48268;SDS011;34088;52.232;5.196;2023-07-09T06:15:52;18.80;;;12.10;;
48268;SDS011;34088;52.232;5.196;2023-07-09T06:18:20;16.10;;;11.18;;
48268;SDS011;34088;52.232;5.196;2023-07-09T06:20:49;19.63;;;11.40;;
48268;SDS011;34088;52.232;5.196;2023-07-09T06:23:17;14.35;;;11.18;;
48268;SDS011;34088;52.232;5.196;2023-07-09T06:25:43;17.48;;;11.00;;
48268;SDS011;34088;52.232;5.196;2023-07-09T06:28:12;16.73;;;10.90;;
48268;SDS011;34088;52.232;5.196;2023-07-09T06:30:38;14.88;;;10.63;;
48268;SDS011;34088;52.232;5.196;2023-07-09T06:33:03;14.90;;;9.80;;
48268;SDS011;34088;52.232;5.196;2023-07-09T06:35:28;14.70;;;9.70;;
48268;SDS011;34088;52.232;5.196;2023-07-09T06:37:54;14.65;;;10.43;;
48268;SDS011;34088;52.232;5.196;2023-07-09T06:40:19;12.93;;;10.00;;
48268;SDS011;34088;52.232;5.196;2023-07-09T06:42:44;14.70;;;9.40;;
48268;SDS011;34088;52.232;5.196;2023-07-09T06:45:10;13.52;;;8.85;;
48268;SDS011;34088;52.232;5.196;2023-07-09T06:47:35;11.63;;;9.02;;
48268;SDS011;34088;52.232;5.196;2023-07-09T06:50:00;12.68;;;8.57;;
48268;SDS011;34088;52.232;5.196;2023-07-09T06:52:25;13.45;;;8.85;;
48268;SDS011;34088;52.232;5.196;2023-07-09T06:54:51;12.75;;;8.85;;
48268;SDS011;34088;52.232;5.196;2023-07-09T06:57:16;12.18;;;7.68;;
48268;SDS011;34088;52.232;5.196;2023-07-09T06:59:41;11.40;;;8.05;;
48268;SDS011;34088;52.232;5.196;2023-07-09T07:02:26;12.50;;;8.02;;
48268;SDS011;34088;52.232;5.196;2023-07-09T07:04:52;10.70;;;8.23;;
48268;SDS011;34088;52.232;5.196;2023-07-09T07:07:17;13.68;;;7.80;;
48268;SDS011;34088;52.232;5.196;2023-07-09T07:09:42;13.07;;;8.30;;
48268;SDS011;34088;52.232;5.196;2023-07-09T07:12:08;13.10;;;8.07;;
48268;SDS011;34088;52.232;5.196;2023-07-09T07:14:33;10.43;;;8.23;;
48268;SDS011;34088;52.232;5.196;2023-07-09T07:16:59;16.15;;;8.48;;
48268;SDS011;34088;52.232;5.196;2023-07-09T07:19:24;11.45;;;7.75;;
48268;SDS011;34088;52.232;5.196;2023-07-09T07:21:49;11.57;;;8.10;;
48268;SDS011;34088;52.232;5.196;2023-07-09T07:24:15;11.18;;;8.68;;
48268;SDS011;34088;52.232;5.196;2023-07-09T07:26:40;11.98;;;9.38;;
48268;SDS011;34088;52.232;5.196;2023-07-09T07:29:05;14.57;;;9.88;;
48268;SDS011;34088;52.232;5.196;2023-07-09T07:31:30;14.65;;;9.18;;
48268;SDS011;34088;52.232;5.196;2023-07-09T07:33:56;14.70;;;10.68;;
48268;SDS011;34088;52.232;5.196;2023-07-09T07:36:21;15.20;;;10.63;;
48268;SDS011;34088;52.232;5.196;2023-07-09T07:38:46;12.98;;;10.25;;
48268;SDS011;34088;52.232;5.196;2023-07-09T07:41:12;13.73;;;10.48;;
48268;SDS011;34088;52.232;5.196;2023-07-09T07:43:37;13.90;;;12.05;;
48268;SDS011;34088;52.232;5.196;2023-07-09T07:46:02;15.95;;;11.18;;
48268;SDS011;34088;52.232;5.196;2023-07-09T07:48:28;13.40;;;10.80;;
48268;SDS011;34088;52.232;5.196;2023-07-09T07:50:59;17.90;;;11.50;;
48268;SDS011;34088;52.232;5.196;2023-07-09T07:53:26;18.48;;;11.00;;
48268;SDS011;34088;52.232;5.196;2023-07-09T07:55:54;17.50;;;11.85;;
48268;SDS011;34088;52.232;5.196;2023-07-09T07:58:20;11.52;;;9.73;;
48268;SDS011;34088;52.232;5.196;2023-07-09T08:00:45;14.85;;;10.35;;
48268;SDS011;34088;52.232;5.196;2023-07-09T08:03:11;15.43;;;11.40;;
48268;SDS011;34088;52.232;5.196;2023-07-09T08:05:36;15.75;;;11.30;;
48268;SDS011;34088;52.232;5.196;2023-07-09T08:08:01;15.40;;;11.18;;
48268;SDS011;34088;52.232;5.196;2023-07-09T08:10:26;18.88;;;10.48;;
48268;SDS011;34088;52.232;5.196;2023-07-09T08:12:52;16.35;;;11.70;;
48268;SDS011;34088;52.232;5.196;2023-07-09T08:15:21;16.20;;;12.38;;
48268;SDS011;34088;52.232;5.196;2023-07-09T08:17:47;20.42;;;12.57;;
48268;SDS011;34088;52.232;5.196;2023-07-09T08:20:12;21.35;;;17.77;;
48268;SDS011;34088;52.232;5.196;2023-07-09T08:22:37;25.85;;;19.00;;
48268;SDS011;34088;52.232;5.196;2023-07-09T08:25:02;27.35;;;21.70;;
48268;SDS011;34088;52.232;5.196;2023-07-09T08:27:28;26.40;;;20.25;;
48268;SDS011;34088;52.232;5.196;2023-07-09T08:29:53;25.02;;;17.55;;
48268;SDS011;34088;52.232;5.196;2023-07-09T08:32:18;18.42;;;15.45;;
48268;SDS011;34088;52.232;5.196;2023-07-09T08:34:44;22.13;;;14.52;;
48268;SDS011;34088;52.232;5.196;2023-07-09T08:37:09;19.63;;;14.30;;
48268;SDS011;34088;52.232;5.196;2023-07-09T08:39:35;19.42;;;15.45;;
48268;SDS011;34088;52.232;5.196;2023-07-09T08:42:05;20.83;;;14.82;;
48268;SDS011;34088;52.232;5.196;2023-07-09T08:47:41;16.02;;;12.93;;
48268;SDS011;34088;52.232;5.196;2023-07-09T08:50:17;22.40;;;14.38;;
48268;SDS011;34088;52.232;5.196;2023-07-09T08:52:48;17.30;;;13.45;;
48268;SDS011;34088;52.232;5.196;2023-07-09T08:55:18;19.80;;;14.65;;
48268;SDS011;34088;52.232;5.196;2023-07-09T08:57:50;17.90;;;14.02;;
48268;SDS011;34088;52.232;5.196;2023-07-09T09:00:32;17.20;;;15.00;;
48268;SDS011;34088;52.232;5.196;2023-07-09T09:05:57;19.35;;;14.23;;
48268;SDS011;34088;52.232;5.196;2023-07-09T09:10:58;17.73;;;13.15;;
48268;SDS011;34088;52.232;5.196;2023-07-09T09:13:47;19.23;;;14.10;;
48268;SDS011;34088;52.232;5.196;2023-07-09T09:16:35;19.55;;;15.15;;
48268;SDS011;34088;52.232;5.196;2023-07-09T09:19:05;16.90;;;14.10;;
48268;SDS011;34088;52.232;5.196;2023-07-09T09:21:54;17.42;;;14.75;;
48268;SDS011;34088;52.232;5.196;2023-07-09T09:24:31;15.80;;;13.40;;
48268;SDS011;34088;52.232;5.196;2023-07-09T09:27:01;15.82;;;13.02;;
48268;SDS011;34088;52.232;5.196;2023-07-09T09:29:27;15.45;;;13.02;;
48268;SDS011;34088;52.232;5.196;2023-07-09T09:31:54;18.20;;;14.18;;
48268;SDS011;34088;52.232;5.196;2023-07-09T09:34:22;16.98;;;13.15;;
48268;SDS011;34088;52.232;5.196;2023-07-09T09:36:54;16.83;;;13.10;;
48268;SDS011;34088;52.232;5.196;2023-07-09T09:39:23;14.65;;;13.15;;
48268;SDS011;34088;52.232;5.196;2023-07-09T09:41:52;20.48;;;14.43;;
48268;SDS011;34088;52.232;5.196;2023-07-09T09:44:21;18.58;;;13.27;;
48268;SDS011;34088;52.232;5.196;2023-07-09T09:46:50;14.43;;;11.73;;
48268;SDS011;34088;52.232;5.196;2023-07-09T09:49:16;15.95;;;11.00;;
48268;SDS011;34088;52.232;5.196;2023-07-09T09:51:43;14.23;;;10.35;;
48268;SDS011;34088;52.232;5.196;2023-07-09T09:54:17;15.48;;;11.18;;
48268;SDS011;34088;52.232;5.196;2023-07-09T09:56:45;14.98;;;10.20;;
48268;SDS011;34088;52.232;5.196;2023-07-09T09:59:18;13.00;;;9.65;;
48268;SDS011;34088;52.232;5.196;2023-07-09T10:01:45;14.43;;;10.20;;
48268;SDS011;34088;52.232;5.196;2023-07-09T10:04:10;13.70;;;10.38;;
48268;SDS011;34088;52.232;5.196;2023-07-09T10:06:50;12.32;;;10.02;;
48268;SDS011;34088;52.232;5.196;2023-07-09T10:09:24;13.70;;;9.77;;
48268;SDS011;34088;52.232;5.196;2023-07-09T10:15:33;12.30;;;10.05;;
48268;SDS011;34088;52.232;5.196;2023-07-09T10:20:51;13.43;;;9.57;;
48268;SDS011;34088;52.232;5.196;2023-07-09T10:23:31;16.42;;;11.85;;
48268;SDS011;34088;52.232;5.196;2023-07-09T10:26:14;15.55;;;11.82;;
48268;SDS011;34088;52.232;5.196;2023-07-09T10:28:50;13.65;;;10.43;;
48268;SDS011;34088;52.232;5.196;2023-07-09T10:34:34;15.70;;;11.55;;
48268;SDS011;34088;52.232;5.196;2023-07-09T10:37:42;15.68;;;12.50;;
48268;SDS011;34088;52.232;5.196;2023-07-09T10:40:36;16.20;;;11.13;;
48268;SDS011;34088;52.232;5.196;2023-07-09T10:43:06;17.00;;;12.85;;
48268;SDS011;34088;52.232;5.196;2023-07-09T10:45:48;13.80;;;11.50;;
48268;SDS011;34088;52.232;5.196;2023-07-09T10:48:34;13.85;;;10.25;;
48268;SDS011;34088;52.232;5.196;2023-07-09T10:51:03;12.57;;;9.98;;
48268;SDS011;34088;52.232;5.196;2023-07-09T10:53:33;15.50;;;8.73;;
48268;SDS011;34088;52.232;5.196;2023-07-09T10:56:14;11.23;;;7.88;;
48268;SDS011;34088;52.232;5.196;2023-07-09T11:04:57;10.90;;;6.80;;
48268;SDS011;34088;52.232;5.196;2023-07-09T11:07:27;9.38;;;6.25;;
48268;SDS011;34088;52.232;5.196;2023-07-09T11:09:58;7.60;;;5.40;;
48268;SDS011;34088;52.232;5.196;2023-07-09T11:12:36;8.43;;;5.45;;
48268;SDS011;34088;52.232;5.196;2023-07-09T11:15:10;8.52;;;6.35;;
48268;SDS011;34088;52.232;5.196;2023-07-09T11:17:41;10.30;;;5.70;;
48268;SDS011;34088;52.232;5.196;2023-07-09T11:23:02;12.55;;;5.30;;
48268;SDS011;34088;52.232;5.196;2023-07-09T11:28:08;8.30;;;5.70;;
48268;SDS011;34088;52.232;5.196;2023-07-09T11:30:44;8.75;;;5.78;;
48268;SDS011;34088;52.232;5.196;2023-07-09T11:33:15;7.72;;;5.75;;
48268;SDS011;34088;52.232;5.196;2023-07-09T11:35:44;8.05;;;5.75;;
48268;SDS011;34088;52.232;5.196;2023-07-09T11:38:18;10.23;;;6.28;;
48268;SDS011;34088;52.232;5.196;2023-07-09T11:40:52;8.40;;;5.88;;
48268;SDS011;34088;52.232;5.196;2023-07-09T11:43:32;10.60;;;7.18;;
48268;SDS011;34088;52.232;5.196;2023-07-09T11:46:06;10.73;;;7.03;;
48268;SDS011;34088;52.232;5.196;2023-07-09T11:48:36;9.88;;;6.78;;
48268;SDS011;34088;52.232;5.196;2023-07-09T11:51:11;8.88;;;7.15;;
48268;SDS011;34088;52.232;5.196;2023-07-09T11:53:43;12.32;;;6.97;;
48268;SDS011;34088;52.232;5.196;2023-07-09T11:56:12;10.27;;;7.07;;
48268;SDS011;34088;52.232;5.196;2023-07-09T11:58:47;9.88;;;5.93;;
48268;SDS011;34088;52.232;5.196;2023-07-09T12:01:23;9.02;;;6.25;;
48268;SDS011;34088;52.232;5.196;2023-07-09T12:03:51;8.45;;;5.90;;
48268;SDS011;34088;52.232;5.196;2023-07-09T12:06:18;7.63;;;5.72;;
48268;SDS011;34088;52.232;5.196;2023-07-09T12:08:53;7.18;;;5.00;;
48268;SDS011;34088;52.232;5.196;2023-07-09T12:11:24;7.57;;;5.43;;
48268;SDS011;34088;52.232;5.196;2023-07-09T12:13:51;7.63;;;5.03;;
48268;SDS011;34088;52.232;5.196;2023-07-09T12:16:22;8.38;;;5.90;;
48268;SDS011;34088;52.232;5.196;2023-07-09T12:18:49;8.63;;;6.50;;
48268;SDS011;34088;52.232;5.196;2023-07-09T12:21:14;7.45;;;4.72;;
48268;SDS011;34088;52.232;5.196;2023-07-09T12:23:40;9.48;;;6.68;;
48268;SDS011;34088;52.232;5.196;2023-07-09T12:26:06;10.15;;;5.40;;
48268;SDS011;34088;52.232;5.196;2023-07-09T12:28:36;8.13;;;6.00;;
48268;SDS011;34088;52.232;5.196;2023-07-09T12:31:02;7.97;;;5.75;;
48268;SDS011;34088;52.232;5.196;2023-07-09T12:33:27;9.52;;;5.82;;
48268;SDS011;34088;52.232;5.196;2023-07-09T12:36:00;10.65;;;6.45;;
48268;SDS011;34088;52.232;5.196;2023-07-09T12:38:29;10.05;;;6.30;;
48268;SDS011;34088;52.232;5.196;2023-07-09T12:40:59;7.78;;;5.30;;
48268;SDS011;34088;52.232;5.196;2023-07-09T12:43:26;8.50;;;5.03;;
48268;SDS011;34088;52.232;5.196;2023-07-09T12:45:56;8.48;;;5.45;;
48268;SDS011;34088;52.232;5.196;2023-07-09T12:48:24;7.85;;;5.20;;
48268;SDS011;34088;52.232;5.196;2023-07-09T12:50:55;6.93;;;5.10;;
48268;SDS011;34088;52.232;5.196;2023-07-09T12:53:22;7.35;;;4.82;;
48268;SDS011;34088;52.232;5.196;2023-07-09T12:55:51;6.65;;;4.70;;
48268;SDS011;34088;52.232;5.196;2023-07-09T12:58:20;8.38;;;4.80;;
48268;SDS011;34088;52.232;5.196;2023-07-09T13:00:51;6.50;;;4.82;;
48268;SDS011;34088;52.232;5.196;2023-07-09T13:03:19;7.65;;;5.20;;
48268;SDS011;34088;52.232;5.196;2023-07-09T13:05:58;8.93;;;5.85;;
48268;SDS011;34088;52.232;5.196;2023-07-09T13:08:26;8.48;;;5.78;;
48268;SDS011;34088;52.232;5.196;2023-07-09T13:10:53;12.32;;;5.53;;
48268;SDS011;34088;52.232;5.196;2023-07-09T13:13:20;7.85;;;5.10;;
48268;SDS011;34088;52.232;5.196;2023-07-09T13:15:51;8.63;;;4.60;;
48268;SDS011;34088;52.232;5.196;2023-07-09T13:18:22;9.02;;;4.88;;
48268;SDS011;34088;52.232;5.196;2023-07-09T13:20:48;8.30;;;5.20;;
48268;SDS011;34088;52.232;5.196;2023-07-09T13:23:15;9.25;;;5.28;;
48268;SDS011;34088;52.232;5.196;2023-07-09T13:25:42;7.70;;;5.07;;
48268;SDS011;34088;52.232;5.196;2023-07-09T13:28:14;7.90;;;5.15;;
48268;SDS011;34088;52.232;5.196;2023-07-09T13:30:42;6.88;;;4.80;;
48268;SDS011;34088;52.232;5.196;2023-07-09T13:33:08;8.77;;;4.78;;
48268;SDS011;34088;52.232;5.196;2023-07-09T13:35:35;6.60;;;4.28;;
48268;SDS011;34088;52.232;5.196;2023-07-09T13:38:00;8.20;;;4.20;;
48268;SDS011;34088;52.232;5.196;2023-07-09T13:40:26;9.70;;;3.97;;
48268;SDS011;34088;52.232;5.196;2023-07-09T13:42:51;9.35;;;3.63;;
48268;SDS011;34088;52.232;5.196;2023-07-09T13:45:22;10.93;;;3.28;;
48268;SDS011;34088;52.232;5.196;2023-07-09T13:47:50;8.65;;;3.33;;
48268;SDS011;34088;52.232;5.196;2023-07-09T13:50:17;7.88;;;3.13;;
48268;SDS011;34088;52.232;5.196;2023-07-09T13:52:44;6.63;;;3.47;;
48268;SDS011;34088;52.232;5.196;2023-07-09T13:55:19;8.02;;;3.80;;
48268;SDS011;34088;52.232;5.196;2023-07-09T13:57:47;7.97;;;3.90;;
48268;SDS011;34088;52.232;5.196;2023-07-09T14:00:13;10.32;;;4.05;;
48268;SDS011;34088;52.232;5.196;2023-07-09T14:02:39;11.38;;;4.22;;
48268;SDS011;34088;52.232;5.196;2023-07-09T14:05:05;8.23;;;4.22;;
48268;SDS011;34088;52.232;5.196;2023-07-09T14:07:33;7.47;;;4.03;;
48268;SDS011;34088;52.232;5.196;2023-07-09T14:10:00;9.20;;;3.83;;
48268;SDS011;34088;52.232;5.196;2023-07-09T14:12:27;11.00;;;4.20;;
48268;SDS011;34088;52.232;5.196;2023-07-09T14:14:53;9.70;;;4.53;;
48268;SDS011;34088;52.232;5.196;2023-07-09T14:17:23;9.25;;;4.50;;
48268;SDS011;34088;52.232;5.196;2023-07-09T14:19:50;14.93;;;5.10;;
48268;SDS011;34088;52.232;5.196;2023-07-09T14:22:34;12.75;;;5.47;;
48268;SDS011;34088;52.232;5.196;2023-07-09T14:25:02;13.90;;;5.35;;
48268;SDS011;34088;52.232;5.196;2023-07-09T14:27:29;14.75;;;5.88;;
48268;SDS011;34088;52.232;5.196;2023-07-09T14:29:55;11.93;;;5.43;;
48268;SDS011;34088;52.232;5.196;2023-07-09T14:32:25;13.93;;;5.40;;
48268;SDS011;34088;52.232;5.196;2023-07-09T14:34:55;12.02;;;5.32;;
48268;SDS011;34088;52.232;5.196;2023-07-09T14:37:20;16.08;;;6.32;;
48268;SDS011;34088;52.232;5.196;2023-07-09T14:39:45;14.13;;;5.97;;
48268;SDS011;34088;52.232;5.196;2023-07-09T14:42:11;13.95;;;6.63;;
48268;SDS011;34088;52.232;5.196;2023-07-09T14:44:37;14.15;;;7.43;;
48268;SDS011;34088;52.232;5.196;2023-07-09T14:47:03;19.08;;;7.50;;
48268;SDS011;34088;52.232;5.196;2023-07-09T14:49:35;16.58;;;8.18;;
48268;SDS011;34088;52.232;5.196;2023-07-09T14:52:00;17.02;;;8.57;;
48268;SDS011;34088;52.232;5.196;2023-07-09T14:54:26;22.65;;;9.00;;
48268;SDS011;34088;52.232;5.196;2023-07-09T14:56:54;14.43;;;8.32;;
48268;SDS011;34088;52.232;5.196;2023-07-09T14:59:21;18.98;;;8.68;;
48268;SDS011;34088;52.232;5.196;2023-07-09T15:01:47;24.25;;;9.38;;
48268;SDS011;34088;52.232;5.196;2023-07-09T15:06:47;22.40;;;11.38;;
48268;SDS011;34088;52.232;5.196;2023-07-09T15:09:13;21.48;;;12.38;;
48268;SDS011;34088;52.232;5.196;2023-07-09T15:11:38;22.27;;;12.05;;
48268;SDS011;34088;52.232;5.196;2023-07-09T15:14:07;19.95;;;11.55;;
48268;SDS011;34088;52.232;5.196;2023-07-09T15:16:35;13.60;;;9.77;;
48268;SDS011;34088;52.232;5.196;2023-07-09T15:19:00;18.55;;;10.20;;
48268;SDS011;34088;52.232;5.196;2023-07-09T15:21:25;16.45;;;10.88;;
48268;SDS011;34088;52.232;5.196;2023-07-09T15:23:51;18.65;;;10.85;;
48268;SDS011;34088;52.232;5.196;2023-07-09T15:26:16;15.48;;;10.57;;
48268;SDS011;34088;52.232;5.196;2023-07-09T15:28:41;17.25;;;12.45;;